Salisbury Ocean City Wicomico Regional Airport
KSBY : now visible

Airfield :











YOU CAN JOIN US ON...

 
LOGIN :

Register | Disclaimer

   EN    FR    IT 

 









Legend :    VFR   Marginal VFR   IFR   Intensive IFR   Very Intensive IFR
Visi :
Ceiling :
>= 8 km
>= 3000ft
5 to 8 km
1000 to 3000 ft
1500m to 5 km
500 to 1000 ft
800 to 1500m
200 to 500 ft
< 800m
< 200 ft
Symbols :   Thunderstorms  Fog  Heavy snow  Heavy precipitations  Wind > 20 kt






- Airport Elevation : 52 ft
- IATA code : SBY


KSBY - Salisbury Ocean City Wicomico Regional

CURRENT METAR :
  • 222354Z 33004KT 10SM SCT050 19/17 A2991 RMK AO2 RAE05 SLP131 P0000 60041 T01940167 10206 20194 51047

EXPIRED METARs :
  • 222254Z 28005KT 10SM -RA SCT022 20/17 A2989 RMK AO2 RAB01 PRESRR SLP123 P0000 T02000172
  • 222154Z 34010KT 10SM FEW023 BKN049 BKN110 20/17 A2982 RMK AO2 RAB40E50 SLP101 P0000 T02000172

TAF KSBY
Valid from the 23 at 00:00 until the 24 at 00:00 UTC


222320Z 2300/2324 30005KT P6SM BKN100
FM230400 33004KT P6SM BKN250
FM230900 36004KT P6SM SCT250
FM231500 02009KT P6SM SKC
FM232100 06006KT P6SM SKC
KZDC FIR / North America



MET'MAP, your aeronautical weather chart ! - Copyright ORBIFLY December 2007 - Disclaimer

ORBIFLY MET'MAP TEAM :

Programming & Development : Alexandra Zaïnal
Concept & original design : Baudouin d'Aumeries
Assistance for programming : Marc-Olivier Méhu
Technical & hardware support : Manuel Goepfert

Contact : metmap@orbifly.com




SOURCES & CREDITS :

   NOAA       Earth
Advisory